»·PEaware :: N30265 KVNY-KHND

N30265 :: KVNY-KHND

FLIGHT INFORMATION

Flight Status: Arrived
Operator: Privately registered:
United States
More flights under this callsign
Pilot: Oliver M. (5590)
Aircraft: ECLIPSE 500
(EA50)
More flights by this aircraft type
Origin: KVNY Van Nuys
United States
Destination: KHND Henderson
United States
More flights between these airports :: More routes between these airports
Route: +
File this flight plan on PilotEdge
Remarks:
Altitude:
(Current/Filed)
0ft
Speed:
(Current/Filed)
0kts
Departed: 30-Sep-20 09:26 PM
Arrived: 30-Sep-20 10:13 PM
Distance/Time
Traveled:
196nm/0:47
Distance/Time
To Go:
Arrived

Flight Plot

Page will automatically refresh every two minutes.

Flight plan parsing failed; only flown route is shown


Map Options




Map Legend


Flown Route
Filed Route
Departure Airport
Arrival Airport
Navaid (VOR, NDB)
Fix

Horizontal Profiles

Position Reports

Time Latitude Longitude Heading Altitude Ground
Speed
30-Sep-20 21:09 34.205961 -118.487235 271 805ft 0kts
30-Sep-20 21:10 34.205961 -118.487235 271 805ft 0kts
30-Sep-20 21:12 34.205961 -118.487257 268 805ft 0kts
30-Sep-20 21:13 34.205886 -118.487504 244 805ft 0kts
30-Sep-20 21:14 34.205738 -118.487679 213 805ft 1kts
30-Sep-20 21:15 34.205648 -118.487869 265 805ft 0kts
30-Sep-20 21:16 34.205647 -118.487879 267 805ft 0kts
30-Sep-20 21:17 34.205647 -118.487879 267 805ft 0kts
30-Sep-20 21:18 34.206067 -118.488335 6 805ft 3kts
30-Sep-20 21:19 34.207200 -118.488239 3 805ft 8kts
30-Sep-20 21:20 34.209645 -118.488314 355 805ft 9kts
30-Sep-20 21:21 34.211703 -118.488513 356 805ft 8kts
30-Sep-20 21:22 34.213906 -118.488731 353 805ft 7kts
30-Sep-20 21:23 34.217346 -118.489345 351 805ft 15kts
30-Sep-20 21:24 34.218575 -118.489462 356 805ft 0kts
30-Sep-20 21:25 34.218565 -118.491198 180 805ft 8kts
30-Sep-20 21:26 34.191810 -118.487223 159 1490ft 161kts
30-Sep-20 21:27 34.162116 -118.439973 123 4043ft 191kts
30-Sep-20 21:28 34.130624 -118.377739 100 4487ft 230kts
30-Sep-20 21:29 34.174362 -118.352595 352 6736ft 221kts
30-Sep-20 21:30 34.235793 -118.364324 354 9514ft 231kts
30-Sep-20 21:30 34.289133 -118.354652 11 11618ft 239kts
30-Sep-20 21:32 34.362678 -118.323004 32 14334ft 248kts
30-Sep-20 21:32 34.411522 -118.282591 38 15539ft 278kts
30-Sep-20 21:33 34.480046 -118.216596 40 15452ft 346kts
30-Sep-20 21:35 34.565979 -118.129996 40 15481ft 343kts
30-Sep-20 21:35 34.625608 -118.067065 54 15468ft 338kts
30-Sep-20 21:36 34.643213 -117.956742 82 15471ft 335kts
30-Sep-20 21:37 34.655344 -117.844582 82 15456ft 334kts
30-Sep-20 21:38 34.667451 -117.732244 82 15466ft 336kts
30-Sep-20 21:39 34.679524 -117.619317 82 15532ft 336kts
30-Sep-20 21:40 34.691356 -117.507667 82 15489ft 329kts
30-Sep-20 21:41 34.702848 -117.398267 82 15489ft 323kts
30-Sep-20 21:42 34.714152 -117.289717 82 15491ft 325kts
30-Sep-20 21:43 34.725449 -117.180274 82 15489ft 327kts
30-Sep-20 21:44 34.736693 -117.070309 82 15472ft 329kts
30-Sep-20 21:45 34.747884 -116.959853 82 15435ft 329kts
30-Sep-20 21:46 34.759026 -116.848927 82 15412ft 329kts
30-Sep-20 21:47 34.769962 -116.739060 82 15481ft 328kts
30-Sep-20 21:48 34.780781 -116.629312 82 15480ft 326kts
30-Sep-20 21:49 34.791521 -116.519326 82 15480ft 328kts
30-Sep-20 21:50 34.827638 -116.422141 46 15480ft 328kts
30-Sep-20 21:51 34.890142 -116.341151 47 15494ft 328kts
30-Sep-20 21:52 34.952164 -116.260017 47 15516ft 328kts
30-Sep-20 21:53 35.015339 -116.178995 39 15520ft 330kts
30-Sep-20 21:54 35.084666 -116.105475 40 15517ft 330kts
30-Sep-20 21:55 35.153608 -116.031328 40 15518ft 330kts
30-Sep-20 21:56 35.222146 -115.957292 40 15527ft 329kts
30-Sep-20 21:57 35.290812 -115.882917 40 15529ft 329kts
30-Sep-20 21:58 35.359202 -115.808662 40 15531ft 329kts
30-Sep-20 21:59 35.427750 -115.734060 40 15534ft 330kts
30-Sep-20 22:00 35.496276 -115.659303 40 15372ft 335kts
30-Sep-20 22:01 35.563784 -115.585480 40 13963ft 310kts
30-Sep-20 22:02 35.624842 -115.518565 40 12554ft 292kts
30-Sep-20 22:03 35.679706 -115.458358 41 11270ft 286kts
30-Sep-20 22:04 35.726298 -115.407199 43 10173ft 283kts
30-Sep-20 22:05 35.784602 -115.342831 43 8862ft 279kts
30-Sep-20 22:06 35.841941 -115.279480 43 7567ft 275kts
30-Sep-20 22:07 35.898637 -115.216724 43 6271ft 272kts
30-Sep-20 22:08 35.952123 -115.157418 43 5984ft 234kts
30-Sep-20 22:09 35.993546 -115.107536 49 5521ft 180kts
30-Sep-20 22:10 36.023296 -115.123156 212 4271ft 119kts
30-Sep-20 22:11 35.991000 -115.135115 183 2608ft 110kts
30-Sep-20 22:12 35.969380 -115.135476 182 2449ft 15kts
30-Sep-20 22:13 35.967215 -115.136466 269 2456ft 0kts
30-Sep-20 22:14 35.968066 -115.137012 0 2451ft 4kts
30-Sep-20 22:15 35.969455 -115.136993 2 2445ft 0kts
30-Sep-20 22:16 35.978124 -115.137384 360 2411ft 0kts
30-Sep-20 22:17 35.978124 -115.137384 0 2411ft 0kts
30-Sep-20 22:18 35.978124 -115.137384 0 2411ft 0kts

Navigation Log

Ident Type
Flight plan parsing failed, navigation log unavailable